createdAt,value
2022-09-27T00:00:46.006Z,9.50
2022-09-27T00:03:12.993Z,11.00
2022-09-27T00:05:40.376Z,10.00
2022-09-27T00:08:07.119Z,11.00
2022-09-27T00:10:33.826Z,9.40
2022-09-27T00:13:00.613Z,10.90
2022-09-27T00:15:27.328Z,9.60
2022-09-27T00:17:54.093Z,10.60
2022-09-27T00:20:20.845Z,11.10
2022-09-27T00:22:48.231Z,9.70
2022-09-27T00:25:15.352Z,9.50
2022-09-27T00:27:42.215Z,9.50
2022-09-27T00:30:09.695Z,11.10
2022-09-27T00:32:36.374Z,9.60
2022-09-27T00:35:03.342Z,8.20
2022-09-27T00:37:29.985Z,9.50
2022-09-27T00:39:56.690Z,9.50
2022-09-27T00:42:23.343Z,9.50
2022-09-27T00:45:04.378Z,9.80
2022-09-27T00:47:36.935Z,9.50
2022-09-27T00:50:07.989Z,9.50
2022-09-27T00:52:41.911Z,10.50
2022-09-27T00:55:11.643Z,9.60
2022-09-27T00:57:38.410Z,9.60
2022-09-27T01:00:07.255Z,9.80
2022-09-27T01:02:36.538Z,9.60
2022-09-27T01:05:03.978Z,11.00
2022-09-27T01:07:31.228Z,9.60
2022-09-27T01:09:58.582Z,11.00
2022-09-27T01:12:28.188Z,9.60
2022-09-27T01:15:00.998Z,9.60
2022-09-27T01:17:46.609Z,9.60
2022-09-27T01:20:36.233Z,9.60
2022-09-27T01:23:18.227Z,9.60
2022-09-27T01:25:47.831Z,9.60
2022-09-27T01:28:33.146Z,9.70
2022-09-27T01:31:15.172Z,9.60
2022-09-27T01:33:58.890Z,9.60
2022-09-27T01:36:35.820Z,9.70
2022-09-27T01:39:21.315Z,9.70
2022-09-27T01:41:54.921Z,9.70
2022-09-27T01:44:27.810Z,11.10
2022-09-27T01:47:01.439Z,10.00
2022-09-27T01:49:32.305Z,9.70
2022-09-27T01:52:00.702Z,11.40
2022-09-27T01:54:34.000Z,11.50
2022-09-27T01:57:01.786Z,10.40
2022-09-27T01:59:31.971Z,10.50
2022-09-27T02:02:02.786Z,11.20
2022-09-27T02:04:32.119Z,9.90
2022-09-27T02:07:09.770Z,9.70
2022-09-27T02:09:42.933Z,11.00
2022-09-27T02:12:12.000Z,9.70
2022-09-27T02:14:46.612Z,11.30
2022-09-27T02:17:30.843Z,9.70
2022-09-27T02:20:27.135Z,9.70
2022-09-27T02:22:56.675Z,9.60
2022-09-27T02:25:25.220Z,10.80
2022-09-27T02:28:01.553Z,9.50
2022-09-27T02:30:28.232Z,9.50
2022-09-27T02:32:54.927Z,9.50
2022-09-27T02:35:31.197Z,10.60
2022-09-27T02:37:58.210Z,9.50
2022-09-27T02:40:26.988Z,10.40
2022-09-27T02:42:53.807Z,9.50
2022-09-27T02:45:20.556Z,9.50
2022-09-27T02:47:53.271Z,10.30
2022-09-27T02:50:31.401Z,9.50
2022-09-27T02:53:18.871Z,9.50
2022-09-27T02:56:00.831Z,9.50
2022-09-27T02:58:42.878Z,9.40
2022-09-27T03:01:16.190Z,9.40
2022-09-27T03:03:46.664Z,9.30
2022-09-27T03:06:15.480Z,9.30
2022-09-27T03:08:43.469Z,10.50
2022-09-27T03:11:10.130Z,9.50
2022-09-27T03:13:55.859Z,10.90
2022-09-27T03:16:25.720Z,10.90
2022-09-27T03:18:52.359Z,10.20
2022-09-27T03:21:19.016Z,9.20
2022-09-27T03:23:45.596Z,9.70
2022-09-27T03:26:13.152Z,10.80
2022-09-27T03:28:40.040Z,10.30
2022-09-27T03:31:06.800Z,10.30
2022-09-27T03:33:33.594Z,9.20
2022-09-27T03:36:00.332Z,9.10
2022-09-27T03:38:27.035Z,9.10
2022-09-27T03:40:53.707Z,11.00
2022-09-27T03:43:20.428Z,9.10
2022-09-27T03:45:47.748Z,10.40
2022-09-27T03:48:14.553Z,11.60
2022-09-27T03:50:41.328Z,11.60
2022-09-27T03:53:08.173Z,10.00
2022-09-27T03:55:35.391Z,9.10
2022-09-27T03:58:02.077Z,9.00
2022-09-27T04:00:28.804Z,9.80
2022-09-27T04:02:55.412Z,10.50
2022-09-27T04:05:22.192Z,10.60
2022-09-27T04:07:49.527Z,9.60
2022-09-27T04:10:16.384Z,11.10
2022-09-27T04:12:43.656Z,8.90
2022-09-27T04:15:10.652Z,9.90
2022-09-27T04:17:37.392Z,8.90
2022-09-27T04:20:04.206Z,10.20
2022-09-27T04:22:32.687Z,8.70
2022-09-27T04:24:59.311Z,8.80
2022-09-27T04:27:25.984Z,9.50
2022-09-27T04:29:52.623Z,10.00
2022-09-27T04:32:19.366Z,9.70
2022-09-27T04:35:04.653Z,11.80
2022-09-27T04:37:31.408Z,8.80
2022-09-27T04:39:58.074Z,10.30
2022-09-27T04:42:24.763Z,9.30
2022-09-27T04:44:51.400Z,9.90
2022-09-27T04:47:19.093Z,8.70
2022-09-27T04:49:45.764Z,8.80
2022-09-27T04:52:12.420Z,10.30
2022-09-27T04:54:39.081Z,9.60
2022-09-27T04:57:05.724Z,9.20
2022-09-27T04:59:32.424Z,10.00
2022-09-27T05:02:02.192Z,9.60
2022-09-27T05:04:30.018Z,9.80
2022-09-27T05:06:57.402Z,8.80
2022-09-27T05:09:24.250Z,9.90
2022-09-27T05:11:50.865Z,8.60
2022-09-27T05:14:17.552Z,8.60
2022-09-27T05:16:44.723Z,11.00
2022-09-27T05:19:11.541Z,10.00
2022-09-27T05:21:38.230Z,10.30
2022-09-27T05:24:04.864Z,9.90
2022-09-27T05:26:31.484Z,8.50
2022-09-27T05:28:58.094Z,8.40
2022-09-27T05:31:26.541Z,10.00
2022-09-27T05:33:53.329Z,8.40
2022-09-27T05:36:19.984Z,9.90
2022-09-27T05:38:46.662Z,9.50
2022-09-27T05:41:13.344Z,10.10
2022-09-27T05:43:40.162Z,9.90
2022-09-27T05:46:07.178Z,10.80
2022-09-27T05:48:33.872Z,8.40
2022-09-27T05:51:00.588Z,10.40
2022-09-27T05:53:27.277Z,9.60
2022-09-27T05:55:53.932Z,11.00
2022-09-27T05:58:20.631Z,9.40
2022-09-27T06:00:47.281Z,10.10
2022-09-27T06:03:14.269Z,10.10
2022-09-27T06:05:40.998Z,8.70
2022-09-27T06:08:11.774Z,10.50
2022-09-27T06:10:39.354Z,8.80
2022-09-27T06:13:11.204Z,8.80
2022-09-27T06:15:39.355Z,10.10
2022-09-27T06:18:11.105Z,8.90
2022-09-27T06:20:38.848Z,9.00
2022-09-27T06:23:07.505Z,10.20
2022-09-27T06:25:34.852Z,10.00
2022-09-27T06:28:02.204Z,10.00
2022-09-27T06:30:29.035Z,9.00
2022-09-27T06:32:57.233Z,10.00
2022-09-27T06:35:25.144Z,9.10
2022-09-27T06:37:52.053Z,9.00
2022-09-27T06:40:19.241Z,10.30
2022-09-27T06:42:46.354Z,9.80
2022-09-27T06:45:13.056Z,9.10
2022-09-27T06:47:39.778Z,10.10
2022-09-27T06:50:06.931Z,9.20
2022-09-27T06:52:35.065Z,9.20
2022-09-27T06:55:02.016Z,9.20
2022-09-27T06:57:47.487Z,10.30
2022-09-27T07:00:29.838Z,9.20
2022-09-27T07:03:00.983Z,9.20
2022-09-27T07:05:29.234Z,9.20
2022-09-27T07:07:57.909Z,11.50
2022-09-27T07:10:25.646Z,9.50
2022-09-27T07:12:52.425Z,10.40
2022-09-27T07:15:21.411Z,9.50
2022-09-27T07:17:55.740Z,9.20
2022-09-27T07:20:22.426Z,9.20
2022-09-27T07:22:49.176Z,9.30
2022-09-27T07:25:15.820Z,10.40
2022-09-27T07:27:42.522Z,9.30
2022-09-27T07:30:09.703Z,9.40
2022-09-27T07:32:36.971Z,9.40
2022-09-27T07:35:04.752Z,9.40
2022-09-27T07:37:32.566Z,11.10
2022-09-27T07:39:59.580Z,11.00
2022-09-27T07:42:26.507Z,9.70
2022-09-27T07:44:53.125Z,9.70
2022-09-27T07:47:20.204Z,10.40
2022-09-27T07:49:46.855Z,9.50
2022-09-27T07:52:13.493Z,11.40
2022-09-27T07:54:40.079Z,9.50
2022-09-27T07:57:06.771Z,9.70
2022-09-27T07:59:33.391Z,9.40
2022-09-27T08:02:00.125Z,9.40
2022-09-27T08:04:26.819Z,9.50
2022-09-27T08:06:54.352Z,10.30
2022-09-27T08:09:21.398Z,9.80
2022-09-27T08:11:49.061Z,10.00
2022-09-27T08:14:15.984Z,10.20
2022-09-27T08:16:42.799Z,10.40
2022-09-27T08:19:09.656Z,10.60
2022-09-27T08:21:36.448Z,10.80
2022-09-27T08:24:04.099Z,12.00
2022-09-27T08:26:30.797Z,10.70
2022-09-27T08:28:57.479Z,10.50
2022-09-27T08:31:25.560Z,11.80
2022-09-27T08:33:53.228Z,10.10
2022-09-27T08:36:24.124Z,9.90
2022-09-27T08:38:51.344Z,9.90
2022-09-27T08:41:38.891Z,9.80
2022-09-27T08:44:08.800Z,9.80
2022-09-27T08:46:35.488Z,9.90
2022-09-27T08:49:07.079Z,9.90
2022-09-27T08:51:34.384Z,9.90
2022-09-27T08:54:05.431Z,10.00
2022-09-27T08:56:32.351Z,10.00
2022-09-27T08:59:02.453Z,10.20
2022-09-27T09:01:29.461Z,9.80
2022-09-27T09:03:58.797Z,10.00
2022-09-27T09:06:26.789Z,10.50
2022-09-27T09:08:53.417Z,9.80
2022-09-27T09:11:45.079Z,10.70
2022-09-27T09:14:18.223Z,9.80
2022-09-27T09:16:48.150Z,9.90
2022-09-27T09:19:21.364Z,10.10
2022-09-27T09:22:07.076Z,10.20
2022-09-27T09:24:52.657Z,10.30
2022-09-27T09:27:29.435Z,10.30
2022-09-27T09:30:05.665Z,10.20
2022-09-27T09:32:45.750Z,10.20
2022-09-27T09:35:15.790Z,10.30
2022-09-27T09:37:54.577Z,10.40
2022-09-27T09:40:24.901Z,10.60
2022-09-27T09:43:18.059Z,11.90
2022-09-27T09:45:58.418Z,11.00
2022-09-27T09:48:28.201Z,11.70
2022-09-27T09:50:56.439Z,11.00
2022-09-27T09:53:26.139Z,10.70
2022-09-27T09:55:57.816Z,10.70
2022-09-27T09:58:28.694Z,10.80
2022-09-27T10:00:58.888Z,10.70
2022-09-27T10:03:25.645Z,10.70
2022-09-27T10:05:52.731Z,11.10
2022-09-27T10:08:21.456Z,12.20
2022-09-27T10:10:48.373Z,11.70
2022-09-27T10:13:16.679Z,11.20
2022-09-27T10:15:44.424Z,11.30
2022-09-27T10:18:15.467Z,11.40
2022-09-27T10:20:44.026Z,11.40
2022-09-27T10:23:20.967Z,11.40
2022-09-27T10:25:53.712Z,11.40
2022-09-27T10:28:27.339Z,11.20
2022-09-27T10:30:57.775Z,11.20
2022-09-27T10:33:25.094Z,11.00
2022-09-27T10:35:51.823Z,11.00
2022-09-27T10:38:24.618Z,11.90
2022-09-27T10:40:52.980Z,11.00
2022-09-27T10:43:29.992Z,11.10
2022-09-27T10:46:10.623Z,11.20
2022-09-27T10:48:39.322Z,11.30
2022-09-27T10:51:07.003Z,11.50
2022-09-27T10:53:34.928Z,11.70
2022-09-27T10:56:01.718Z,13.10
2022-09-27T10:58:33.641Z,13.00
2022-09-27T11:01:02.386Z,12.00
2022-09-27T11:03:30.610Z,13.30
2022-09-27T11:05:59.303Z,13.20
2022-09-27T11:08:30.595Z,12.90
2022-09-27T11:11:02.149Z,11.90
2022-09-27T11:13:33.686Z,11.70
2022-09-27T11:16:38.944Z,12.90
2022-09-27T11:19:05.589Z,11.50
2022-09-27T11:21:33.034Z,12.00
2022-09-27T11:24:04.110Z,11.20
2022-09-27T11:26:30.733Z,11.10
2022-09-27T11:29:02.956Z,12.20
2022-09-27T11:31:36.194Z,11.00
2022-09-27T11:34:15.359Z,11.10
2022-09-27T11:37:00.973Z,11.40
2022-09-27T11:39:55.096Z,11.50
2022-09-27T11:42:37.347Z,11.70
2022-09-27T11:45:37.371Z,11.70
2022-09-27T11:48:07.502Z,13.10
2022-09-27T11:50:34.165Z,11.70
2022-09-27T11:53:24.604Z,13.20
2022-09-27T11:56:08.176Z,12.90
2022-09-27T11:58:53.738Z,11.10
2022-09-27T12:01:39.186Z,11.10
2022-09-27T12:04:22.148Z,11.10
2022-09-27T12:06:55.400Z,11.00
2022-09-27T12:09:29.698Z,11.90
2022-09-27T12:11:59.920Z,11.10
2022-09-27T12:14:36.232Z,11.20
2022-09-27T12:17:05.310Z,11.10
2022-09-27T12:19:38.536Z,12.40
2022-09-27T12:22:07.007Z,11.30
2022-09-27T12:24:34.456Z,13.10
2022-09-27T12:27:09.815Z,12.90
2022-09-27T12:29:39.661Z,11.30
2022-09-27T12:32:18.184Z,11.30
2022-09-27T12:35:03.526Z,12.60
2022-09-27T12:37:40.136Z,11.10
2022-09-27T12:40:15.805Z,10.90
2022-09-27T12:42:51.818Z,10.90
2022-09-27T12:45:22.750Z,10.90
2022-09-27T12:47:55.666Z,11.10
2022-09-27T12:50:44.244Z,11.30
2022-09-27T12:53:23.714Z,11.40
2022-09-27T12:56:09.380Z,11.50
2022-09-27T12:58:39.047Z,11.60
2022-09-27T13:01:32.298Z,11.60
2022-09-27T13:04:10.570Z,11.70
2022-09-27T13:06:47.377Z,11.70
2022-09-27T13:09:32.820Z,11.80
2022-09-27T13:12:10.972Z,11.80
2022-09-27T13:14:44.461Z,11.80
2022-09-27T13:17:30.097Z,11.80
2022-09-27T13:19:56.754Z,11.90
2022-09-27T13:22:36.883Z,13.50
2022-09-27T13:25:14.750Z,12.30
2022-09-27T13:27:41.696Z,12.20
2022-09-27T13:30:08.294Z,14.00
2022-09-27T13:32:36.496Z,12.20
2022-09-27T13:35:24.451Z,12.30
2022-09-27T13:37:56.989Z,12.20
2022-09-27T13:40:43.983Z,12.00
2022-09-27T13:43:10.828Z,12.00
2022-09-27T13:45:51.778Z,12.50
2022-09-27T13:48:43.101Z,11.80
2022-09-27T13:51:18.882Z,11.80
2022-09-27T13:53:56.782Z,11.80
2022-09-27T13:56:47.141Z,12.70
2022-09-27T13:59:32.524Z,11.50
2022-09-27T14:02:02.213Z,11.40
2022-09-27T14:04:36.759Z,11.40
2022-09-27T14:07:04.591Z,11.30
2022-09-27T14:09:36.154Z,11.30
2022-09-27T14:12:05.779Z,11.30
2022-09-27T14:14:33.437Z,12.20
2022-09-27T14:17:00.479Z,13.40
2022-09-27T14:19:27.520Z,12.50
2022-09-27T14:21:54.318Z,13.00
2022-09-27T14:24:53.644Z,11.60
2022-09-27T14:27:27.193Z,11.50
2022-09-27T14:29:58.588Z,11.40
2022-09-27T14:32:26.638Z,11.20
2022-09-27T14:35:41.332Z,11.10
2022-09-27T14:38:36.073Z,10.80
2022-09-27T14:41:01.139Z,10.70
2022-09-27T14:43:28.927Z,10.90
2022-09-27T14:46:00.039Z,10.70
2022-09-27T14:48:32.248Z,10.60
2022-09-27T14:51:04.782Z,10.60
2022-09-27T14:53:35.290Z,11.90
2022-09-27T14:56:02.729Z,10.80
2022-09-27T14:58:46.714Z,11.00
2022-09-27T15:01:20.070Z,12.00
2022-09-27T15:03:48.957Z,11.10
2022-09-27T15:06:19.230Z,11.10
2022-09-27T15:08:49.366Z,11.10
2022-09-27T15:11:17.610Z,11.20
2022-09-27T15:13:45.983Z,11.30
2022-09-27T15:16:20.019Z,13.00
2022-09-27T15:18:58.222Z,11.20
2022-09-27T15:21:29.495Z,12.60
2022-09-27T15:23:56.704Z,11.10
2022-09-27T15:26:25.845Z,11.80
2022-09-27T15:28:53.183Z,11.20
2022-09-27T15:31:34.779Z,11.20
2022-09-27T15:34:02.361Z,11.10
2022-09-27T15:36:44.236Z,12.30
2022-09-27T15:39:16.465Z,10.90
2022-09-27T15:42:02.235Z,12.30
2022-09-27T15:44:36.109Z,10.70
2022-09-27T15:47:03.202Z,10.70
2022-09-27T15:49:30.689Z,11.90
2022-09-27T15:51:59.115Z,10.80
2022-09-27T15:54:27.486Z,11.60
2022-09-27T15:56:56.057Z,10.90
2022-09-27T15:59:27.027Z,11.30
2022-09-27T16:01:58.563Z,10.80
2022-09-27T16:04:26.251Z,10.70
2022-09-27T16:06:56.051Z,10.80
2022-09-27T16:09:22.773Z,10.60
2022-09-27T16:11:50.232Z,10.60
2022-09-27T16:14:18.481Z,10.50
2022-09-27T16:16:52.864Z,12.20
2022-09-27T16:19:19.692Z,10.30
2022-09-27T16:21:48.408Z,10.30
2022-09-27T16:24:16.104Z,10.20
2022-09-27T16:26:42.692Z,10.10
2022-09-27T16:29:10.893Z,10.10
2022-09-27T16:31:38.610Z,10.00
2022-09-27T16:34:05.344Z,11.30
2022-09-27T16:36:32.027Z,9.90
2022-09-27T16:38:58.815Z,11.40
2022-09-27T16:41:25.409Z,9.70
2022-09-27T16:43:51.971Z,9.80
2022-09-27T16:46:19.467Z,9.70
2022-09-27T16:48:47.030Z,9.70
2022-09-27T16:51:34.349Z,9.70
2022-09-27T16:54:00.948Z,9.60
2022-09-27T16:56:28.558Z,9.50
2022-09-27T16:58:55.213Z,9.60
2022-09-27T17:01:21.934Z,10.10
2022-09-27T17:03:51.074Z,9.50
2022-09-27T17:06:20.514Z,11.20
2022-09-27T17:08:47.247Z,10.50
2022-09-27T17:11:17.901Z,9.40
2022-09-27T17:13:44.914Z,9.30
2022-09-27T17:16:12.356Z,9.30
2022-09-27T17:18:39.684Z,9.30
2022-09-27T17:21:07.241Z,11.90
2022-09-27T17:23:34.280Z,9.10
2022-09-27T17:26:08.238Z,9.20
2022-09-27T17:28:36.514Z,9.10
2022-09-27T17:31:04.884Z,9.20
2022-09-27T17:33:31.904Z,9.10
2022-09-27T17:36:00.078Z,9.10
2022-09-27T17:38:26.691Z,9.00
2022-09-27T17:41:00.020Z,9.10
2022-09-27T17:43:26.638Z,8.90
2022-09-27T17:45:53.258Z,8.90
2022-09-27T17:48:38.772Z,11.60
2022-09-27T17:51:05.467Z,8.90
2022-09-27T17:53:35.505Z,8.80
2022-09-27T17:56:02.846Z,8.80
2022-09-27T17:58:31.164Z,8.70
2022-09-27T18:01:04.296Z,9.60
2022-09-27T18:03:31.549Z,8.70
2022-09-27T18:05:58.280Z,8.70
2022-09-27T18:08:30.489Z,8.60
2022-09-27T18:10:57.145Z,8.60
2022-09-27T18:13:23.732Z,8.70
2022-09-27T18:15:59.859Z,8.60
2022-09-27T18:18:28.239Z,8.60
2022-09-27T18:20:55.381Z,8.50
2022-09-27T18:23:22.125Z,8.50
2022-09-27T18:25:55.800Z,11.40
2022-09-27T18:28:29.460Z,8.40
2022-09-27T18:31:00.637Z,8.40
2022-09-27T18:33:27.316Z,8.40
2022-09-27T18:35:54.063Z,8.40
2022-09-27T18:38:20.670Z,8.30
2022-09-27T18:40:56.055Z,8.40
2022-09-27T18:43:25.050Z,9.20
2022-09-27T18:45:51.968Z,8.30
2022-09-27T18:48:18.547Z,8.20
2022-09-27T18:50:45.844Z,8.20
2022-09-27T18:53:12.692Z,9.10
2022-09-27T18:55:41.601Z,6.30
2022-09-27T18:58:08.389Z,8.00
2022-09-27T19:00:35.817Z,7.90
2022-09-27T19:03:02.550Z,7.80
2022-09-27T19:05:29.163Z,9.60
2022-09-27T19:07:55.771Z,7.70
2022-09-27T19:10:22.367Z,7.60
2022-09-27T19:12:49.074Z,7.50
2022-09-27T19:15:15.765Z,7.50
2022-09-27T19:17:42.423Z,7.40
2022-09-27T19:20:09.681Z,7.40
2022-09-27T19:22:36.322Z,5.90
2022-09-27T19:25:02.986Z,9.80
2022-09-27T19:27:30.386Z,7.40
2022-09-27T19:29:59.135Z,7.50
2022-09-27T19:32:26.178Z,7.60
2022-09-27T19:34:52.835Z,7.60
2022-09-27T19:37:19.483Z,9.00
2022-09-27T19:39:46.138Z,7.60
2022-09-27T19:42:12.736Z,8.90
2022-09-27T19:44:39.608Z,7.60
2022-09-27T19:47:06.247Z,7.60
2022-09-27T19:49:32.842Z,7.50
2022-09-27T19:52:00.959Z,7.50
2022-09-27T19:54:27.575Z,7.40
2022-09-27T19:56:54.178Z,9.50
2022-09-27T19:59:20.834Z,7.40
2022-09-27T20:01:48.202Z,7.40
2022-09-27T20:04:14.917Z,7.40
2022-09-27T20:06:41.617Z,7.40
2022-09-27T20:09:08.405Z,7.40
2022-09-27T20:11:35.010Z,7.30
2022-09-27T20:14:01.650Z,7.40
2022-09-27T20:16:28.401Z,7.40
2022-09-27T20:18:56.458Z,7.30
2022-09-27T20:21:24.368Z,7.40
2022-09-27T20:23:52.371Z,7.30
2022-09-27T20:26:19.753Z,7.40
2022-09-27T20:28:47.418Z,7.40
2022-09-27T20:31:16.251Z,7.40
2022-09-27T20:33:46.864Z,7.50
2022-09-27T20:36:18.366Z,7.50
2022-09-27T20:38:49.248Z,7.40
2022-09-27T20:41:17.839Z,7.30
2022-09-27T20:43:44.768Z,7.40
2022-09-27T20:46:15.605Z,7.40
2022-09-27T20:48:43.189Z,7.30
2022-09-27T20:51:11.167Z,9.40
2022-09-27T20:53:37.804Z,7.60
2022-09-27T20:56:04.574Z,7.60
2022-09-27T20:58:31.909Z,7.60
2022-09-27T21:01:04.695Z,7.60
2022-09-27T21:03:31.326Z,7.70
2022-09-27T21:05:58.777Z,7.70
2022-09-27T21:08:25.565Z,7.80
2022-09-27T21:10:53.869Z,9.20
2022-09-27T21:13:21.079Z,7.90
2022-09-27T21:15:47.723Z,7.90
2022-09-27T21:18:14.397Z,7.90
2022-09-27T21:20:41.090Z,8.00
2022-09-27T21:23:07.730Z,8.00
2022-09-27T21:25:34.358Z,7.90
2022-09-27T21:28:04.375Z,8.00
2022-09-27T21:30:31.128Z,8.00
2022-09-27T21:32:57.806Z,8.10
2022-09-27T21:35:24.482Z,8.10
2022-09-27T21:37:51.268Z,8.10
2022-09-27T21:40:18.227Z,8.10
2022-09-27T21:42:44.866Z,8.10
2022-09-27T21:45:11.761Z,8.10
2022-09-27T21:47:38.397Z,8.10
2022-09-27T21:50:05.242Z,8.10
2022-09-27T21:52:31.915Z,8.00
2022-09-27T21:54:58.519Z,8.00
2022-09-27T21:57:25.246Z,10.00
2022-09-27T21:59:52.033Z,8.10
2022-09-27T22:02:19.525Z,8.50
2022-09-27T22:04:48.905Z,8.10
2022-09-27T22:07:16.018Z,8.10
2022-09-27T22:09:42.637Z,8.20
2022-09-27T22:12:09.630Z,8.20
2022-09-27T22:14:36.229Z,9.30
2022-09-27T22:17:02.844Z,8.10
2022-09-27T22:19:29.456Z,8.10
2022-09-27T22:21:56.109Z,8.00
2022-09-27T22:24:22.917Z,10.60
2022-09-27T22:26:50.243Z,11.10
2022-09-27T22:29:17.283Z,8.20
2022-09-27T22:31:44.110Z,8.10
2022-09-27T22:34:18.750Z,9.10
2022-09-27T22:36:45.910Z,8.10
2022-09-27T22:39:12.974Z,8.10
2022-09-27T22:41:39.702Z,8.10
2022-09-27T22:44:07.657Z,9.90
2022-09-27T22:46:35.068Z,8.10
2022-09-27T22:49:01.736Z,8.10
2022-09-27T22:51:28.821Z,10.90
2022-09-27T22:53:55.530Z,8.10
2022-09-27T22:56:22.300Z,8.30
2022-09-27T22:58:49.246Z,8.10
2022-09-27T23:01:17.317Z,8.20
2022-09-27T23:03:44.371Z,8.20
2022-09-27T23:06:11.296Z,8.20
2022-09-27T23:08:38.448Z,8.20
2022-09-27T23:11:06.007Z,8.20
2022-09-27T23:13:37.609Z,8.20
2022-09-27T23:16:05.403Z,8.30
2022-09-27T23:18:33.294Z,10.50
2022-09-27T23:21:03.182Z,8.30
2022-09-27T23:23:37.206Z,10.80
2022-09-27T23:26:05.200Z,8.30
2022-09-27T23:28:32.525Z,8.40
2022-09-27T23:31:09.499Z,10.60
2022-09-27T23:33:37.334Z,8.30
2022-09-27T23:36:04.286Z,8.40
2022-09-27T23:38:31.797Z,8.30
2022-09-27T23:40:59.017Z,8.40
2022-09-27T23:43:25.726Z,11.20
2022-09-27T23:45:55.143Z,8.90
2022-09-27T23:48:21.780Z,8.30
2022-09-27T23:50:48.664Z,8.40
2022-09-27T23:53:15.338Z,9.30
2022-09-27T23:55:42.012Z,8.30
2022-09-27T23:58:08.580Z,8.40
